Aeroporto :
LOGIN :

Iscrizione | Disclaimer

   EN    FR    IT 

 










Sommario :    VFR   VFR Marginale   IFR   IFR Intensivo   IFR Molto Intensivo
Visibilità : 
Base nubi : 
>= 8 km
>= 3000ft
5 / 8 km
1000 / 3000 ft
1500m / 5 km
500 / 1000 ft
800 / 1500m
200 / 500 ft
< 800m
< 200 ft
Simboli :   Temporali  Nebbia  Neve Forte  Precipitazioni Forti  Vento > 20 kt
SIGMETs :   Varie  Temporali  Ghiacco  Turbolenza  Onda orograficha  Ceneri Vulcaniche






- Altitudine del aeroporto : 36 ft
- Codice IATA : RIX


EVRA - Riga

ULTIMO METAR :
  • 311020Z VRB01KT 9999 SCT006 BKN010 OVC012 08/07 Q1024 R36/290195 NOSIG

METARs OBSOLETI :
  • 310950Z VRB02KT 9999 BKN006 OVC010 08/07 Q1024 R36/290195 BECMG SCT006 BKN012
  • 310920Z VRB02KT 9999 OVC006 08/07 Q1024 R36/290195 NOSIG
  • 310850Z VRB02KT 9999 OVC005 08/07 Q1023 R36/290195 NOSIG
  • 310820Z 09005KT 050V130 9999 OVC005 08/07 Q1022 R36/290195 NOSIG
  • 310750Z 11005KT 9999 OVC005 08/08 Q1022 R36/290195 TEMPO OVC004

TAF TAF EVRA
Valido dal 31 a 09 ore il 01 a 09 ore UTC


310800Z 3109/0109 VRB02KT 7000 BKN005
BECMG 3109/3111 BKN015
TEMPO 3118/0106 3000 BR BKN005
PROB40
TEMPO 3119/0106 0600 FG VV002



MetMap, La meteo Aeronautica in un colpo d'occhio ! - Copyright ORBIFLY Dicembre 2007 - Disclaimer

ORBIFLY MET'MAP TEAM :

Programmazione e sviluppo : Alexandra Zaïnal
Concezione : Baudouin d'Aumeries
Aiuto per la programmazione : Marc-Olivier Méhu
Supporto tecnico e logistico : Manuel Goepfert
Aiuto per la traduzione : Arnaldo La Scala

Contatto : metmap@orbifly.com




FONTI E CREDITI :

   NOAA